sensor_id;sensor_type;location;lat;lon;timestamp;pressure;altitude;pressure_sealevel;temperature;humidity
72548;BME280;60570;50.848;6.776;2023-01-09T00:00:48;98474.13;;;10.45;69.60
72548;BME280;60570;50.848;6.776;2023-01-09T00:01:50;98478.88;;;10.45;69.71
72548;BME280;60570;50.848;6.776;2023-01-09T00:02:51;98478.41;;;10.36;69.67
72548;BME280;60570;50.848;6.776;2023-01-09T00:03:51;98475.28;;;10.41;69.65
72548;BME280;60570;50.848;6.776;2023-01-09T00:04:52;98482.41;;;10.42;69.75
72548;BME280;60570;50.848;6.776;2023-01-09T00:05:52;98465.47;;;10.54;69.49
72548;BME280;60570;50.848;6.776;2023-01-09T00:06:53;98466.94;;;10.37;69.56
72548;BME280;60570;50.848;6.776;2023-01-09T00:07:53;98477.72;;;10.49;69.12
72548;BME280;60570;50.848;6.776;2023-01-09T00:08:53;98468.63;;;10.49;69.00
72548;BME280;60570;50.848;6.776;2023-01-09T00:09:54;98473.03;;;10.57;69.22
72548;BME280;60570;50.848;6.776;2023-01-09T00:10:54;98467.44;;;10.53;69.12
72548;BME280;60570;50.848;6.776;2023-01-09T00:11:55;98470.19;;;10.50;69.54
72548;BME280;60570;50.848;6.776;2023-01-09T00:12:55;98461.88;;;10.50;69.31
72548;BME280;60570;50.848;6.776;2023-01-09T00:13:55;98478.94;;;10.55;68.93
72548;BME280;60570;50.848;6.776;2023-01-09T00:14:56;98476.16;;;10.52;68.92
72548;BME280;60570;50.848;6.776;2023-01-09T00:15:57;98474.19;;;10.52;69.22
72548;BME280;60570;50.848;6.776;2023-01-09T00:16:58;98481.63;;;10.41;69.23
72548;BME280;60570;50.848;6.776;2023-01-09T00:17:59;98482.06;;;10.43;69.34
72548;BME280;60570;50.848;6.776;2023-01-09T00:18:59;98484.34;;;10.34;69.45
72548;BME280;60570;50.848;6.776;2023-01-09T00:20:00;98474.09;;;10.42;69.69
72548;BME280;60570;50.848;6.776;2023-01-09T00:21:05;98472.53;;;10.44;69.54
72548;BME280;60570;50.848;6.776;2023-01-09T00:22:05;98484.00;;;10.39;69.73
72548;BME280;60570;50.848;6.776;2023-01-09T00:23:08;98489.56;;;10.39;69.67
72548;BME280;60570;50.848;6.776;2023-01-09T00:24:09;98486.00;;;10.42;69.77
72548;BME280;60570;50.848;6.776;2023-01-09T00:25:09;98482.91;;;10.51;69.03
72548;BME280;60570;50.848;6.776;2023-01-09T00:26:16;98489.22;;;10.51;69.15
72548;BME280;60570;50.848;6.776;2023-01-09T00:27:16;98486.88;;;10.53;68.56
72548;BME280;60570;50.848;6.776;2023-01-09T00:28:17;98489.28;;;10.55;69.20
72548;BME280;60570;50.848;6.776;2023-01-09T00:29:17;98491.66;;;10.56;68.78
72548;BME280;60570;50.848;6.776;2023-01-09T00:30:18;98482.22;;;10.64;68.44
72548;BME280;60570;50.848;6.776;2023-01-09T00:31:19;98477.44;;;10.65;68.75
72548;BME280;60570;50.848;6.776;2023-01-09T00:32:20;98483.38;;;10.63;68.42
72548;BME280;60570;50.848;6.776;2023-01-09T00:33:24;98487.25;;;10.52;68.75
72548;BME280;60570;50.848;6.776;2023-01-09T00:34:25;98484.44;;;10.45;69.02
72548;BME280;60570;50.848;6.776;2023-01-09T00:35:26;98490.44;;;10.54;68.76
72548;BME280;60570;50.848;6.776;2023-01-09T00:36:28;98491.97;;;10.44;69.25
72548;BME280;60570;50.848;6.776;2023-01-09T00:37:29;98489.66;;;10.53;68.88
72548;BME280;60570;50.848;6.776;2023-01-09T00:38:29;98492.00;;;10.51;68.63
72548;BME280;60570;50.848;6.776;2023-01-09T00:39:30;98489.56;;;10.43;69.27
72548;BME280;60570;50.848;6.776;2023-01-09T00:40:30;98494.75;;;10.48;68.82
72548;BME280;60570;50.848;6.776;2023-01-09T00:41:37;98489.22;;;10.48;68.90
72548;BME280;60570;50.848;6.776;2023-01-09T00:42:38;98499.56;;;10.51;69.05
72548;BME280;60570;50.848;6.776;2023-01-09T00:43:45;98497.56;;;10.51;68.84
72548;BME280;60570;50.848;6.776;2023-01-09T00:44:56;98493.63;;;10.52;68.73
72548;BME280;60570;50.848;6.776;2023-01-09T00:45:57;98489.19;;;10.44;69.13
72548;BME280;60570;50.848;6.776;2023-01-09T00:47:13;98498.38;;;10.52;68.49
72548;BME280;60570;50.848;6.776;2023-01-09T00:48:18;98492.47;;;10.57;68.51
72548;BME280;60570;50.848;6.776;2023-01-09T00:49:28;98497.63;;;10.58;68.79
72548;BME280;60570;50.848;6.776;2023-01-09T00:50:30;98499.63;;;10.61;68.40
72548;BME280;60570;50.848;6.776;2023-01-09T00:51:32;98486.56;;;10.62;68.68
72548;BME280;60570;50.848;6.776;2023-01-09T00:52:34;98492.47;;;10.57;68.63
72548;BME280;60570;50.848;6.776;2023-01-09T00:53:38;98496.81;;;10.58;68.52
72548;BME280;60570;50.848;6.776;2023-01-09T00:54:41;98486.81;;;10.46;68.74
72548;BME280;60570;50.848;6.776;2023-01-09T00:55:42;98487.28;;;10.55;68.66
72548;BME280;60570;50.848;6.776;2023-01-09T00:56:43;98493.06;;;10.36;69.20
72548;BME280;60570;50.848;6.776;2023-01-09T00:57:43;98491.53;;;10.42;69.30
72548;BME280;60570;50.848;6.776;2023-01-09T00:58:44;98493.50;;;10.38;68.91
72548;BME280;60570;50.848;6.776;2023-01-09T00:59:45;98491.53;;;10.42;68.84
72548;BME280;60570;50.848;6.776;2023-01-09T01:00:46;98496.38;;;10.49;69.00
72548;BME280;60570;50.848;6.776;2023-01-09T01:01:46;98493.63;;;10.56;68.36
72548;BME280;60570;50.848;6.776;2023-01-09T01:02:47;98503.22;;;10.62;68.32
72548;BME280;60570;50.848;6.776;2023-01-09T01:03:47;98500.72;;;10.50;68.28
72548;BME280;60570;50.848;6.776;2023-01-09T01:04:47;98498.38;;;10.52;68.55
72548;BME280;60570;50.848;6.776;2023-01-09T01:06:07;98500.00;;;10.56;68.15
72548;BME280;60570;50.848;6.776;2023-01-09T01:07:26;98498.41;;;10.59;68.00
72548;BME280;60570;50.848;6.776;2023-01-09T01:08:38;98503.09;;;10.51;68.36
72548;BME280;60570;50.848;6.776;2023-01-09T01:09:38;98493.63;;;10.52;68.43
72548;BME280;60570;50.848;6.776;2023-01-09T01:10:39;98496.41;;;10.56;68.22
72548;BME280;60570;50.848;6.776;2023-01-09T01:11:40;98496.44;;;10.59;67.75
72548;BME280;60570;50.848;6.776;2023-01-09T01:12:41;98497.22;;;10.56;67.99
72548;BME280;60570;50.848;6.776;2023-01-09T01:13:43;98498.38;;;10.55;68.34
72548;BME280;60570;50.848;6.776;2023-01-09T01:14:43;98487.69;;;10.57;68.17
72548;BME280;60570;50.848;6.776;2023-01-09T01:15:45;98492.41;;;10.50;68.29
72548;BME280;60570;50.848;6.776;2023-01-09T01:16:45;98492.34;;;10.43;68.46
72548;BME280;60570;50.848;6.776;2023-01-09T01:17:46;98495.19;;;10.53;68.73
72548;BME280;60570;50.848;6.776;2023-01-09T01:18:46;98493.66;;;10.59;68.00
72548;BME280;60570;50.848;6.776;2023-01-09T01:19:48;98494.47;;;10.60;67.79
72548;BME280;60570;50.848;6.776;2023-01-09T01:20:48;98496.41;;;10.56;68.03
72548;BME280;60570;50.848;6.776;2023-01-09T01:21:49;98497.94;;;10.50;68.44
72548;BME280;60570;50.848;6.776;2023-01-09T01:22:49;98493.94;;;10.44;68.71
72548;BME280;60570;50.848;6.776;2023-01-09T01:23:49;98497.13;;;10.46;68.84
72548;BME280;60570;50.848;6.776;2023-01-09T01:24:50;98500.69;;;10.46;68.52
72548;BME280;60570;50.848;6.776;2023-01-09T01:25:50;98503.06;;;10.44;68.27
72548;BME280;60570;50.848;6.776;2023-01-09T01:26:51;98504.66;;;10.45;68.28
72548;BME280;60570;50.848;6.776;2023-01-09T01:27:51;98506.22;;;10.43;68.58
72548;BME280;60570;50.848;6.776;2023-01-09T01:28:52;98502.63;;;10.39;68.71
72548;BME280;60570;50.848;6.776;2023-01-09T01:29:52;98498.25;;;10.38;68.81
72548;BME280;60570;50.848;6.776;2023-01-09T01:30:53;98491.91;;;10.37;68.73
72548;BME280;60570;50.848;6.776;2023-01-09T01:31:53;98498.28;;;10.41;68.90
72548;BME280;60570;50.848;6.776;2023-01-09T01:32:54;98501.06;;;10.41;68.49
72548;BME280;60570;50.848;6.776;2023-01-09T01:33:54;98502.22;;;10.40;68.68
72548;BME280;60570;50.848;6.776;2023-01-09T01:34:54;98499.81;;;10.35;68.87
72548;BME280;60570;50.848;6.776;2023-01-09T01:36:03;98498.56;;;10.29;69.17
72548;BME280;60570;50.848;6.776;2023-01-09T01:37:04;98503.75;;;10.31;69.20
72548;BME280;60570;50.848;6.776;2023-01-09T01:38:05;98511.66;;;10.29;69.11
72548;BME280;60570;50.848;6.776;2023-01-09T01:39:05;98501.31;;;10.26;69.13
72548;BME280;60570;50.848;6.776;2023-01-09T01:40:08;98508.94;;;10.36;69.33
72548;BME280;60570;50.848;6.776;2023-01-09T01:41:09;98510.56;;;10.40;69.39
72548;BME280;60570;50.848;6.776;2023-01-09T01:42:13;98504.19;;;10.40;68.89
72548;BME280;60570;50.848;6.776;2023-01-09T01:43:14;98505.81;;;10.41;68.70
72548;BME280;60570;50.848;6.776;2023-01-09T01:45:52;98508.59;;;10.41;68.56
72548;BME280;60570;50.848;6.776;2023-01-09T01:46:54;98511.69;;;10.32;69.26
72548;BME280;60570;50.848;6.776;2023-01-09T01:48:02;98504.56;;;10.35;68.67
72548;BME280;60570;50.848;6.776;2023-01-09T01:49:10;98508.19;;;10.39;68.63
72548;BME280;60570;50.848;6.776;2023-01-09T01:51:45;98520.00;;;10.32;68.73
72548;BME280;60570;50.848;6.776;2023-01-09T01:52:53;98517.25;;;10.36;68.92
72548;BME280;60570;50.848;6.776;2023-01-09T01:53:58;98523.59;;;10.36;68.99
72548;BME280;60570;50.848;6.776;2023-01-09T01:55:01;98524.81;;;10.35;68.77
72548;BME280;60570;50.848;6.776;2023-01-09T01:57:04;98535.84;;;10.32;69.12
72548;BME280;60570;50.848;6.776;2023-01-09T01:58:09;98541.06;;;10.37;68.88
72548;BME280;60570;50.848;6.776;2023-01-09T02:00:15;98539.81;;;10.31;68.86
72548;BME280;60570;50.848;6.776;2023-01-09T02:01:17;98535.09;;;10.35;69.01
72548;BME280;60570;50.848;6.776;2023-01-09T02:02:21;98550.22;;;10.41;68.54
72548;BME280;60570;50.848;6.776;2023-01-09T02:03:23;98547.03;;;10.39;68.82
72548;BME280;60570;50.848;6.776;2023-01-09T02:04:26;98551.34;;;10.36;68.61
72548;BME280;60570;50.848;6.776;2023-01-09T02:05:28;98555.31;;;10.35;69.08
72548;BME280;60570;50.848;6.776;2023-01-09T02:06:29;98552.47;;;10.28;69.10
72548;BME280;60570;50.848;6.776;2023-01-09T02:07:32;98550.50;;;10.29;69.01
72548;BME280;60570;50.848;6.776;2023-01-09T02:08:32;98548.09;;;10.27;69.22
72548;BME280;60570;50.848;6.776;2023-01-09T02:09:33;98552.50;;;10.32;69.29
72548;BME280;60570;50.848;6.776;2023-01-09T02:10:33;98547.31;;;10.27;68.99
72548;BME280;60570;50.848;6.776;2023-01-09T02:11:35;98546.44;;;10.19;69.22
72548;BME280;60570;50.848;6.776;2023-01-09T02:12:36;98549.97;;;10.16;69.32
72548;BME280;60570;50.848;6.776;2023-01-09T02:13:36;98558.34;;;10.20;69.31
72548;BME280;60570;50.848;6.776;2023-01-09T02:14:40;98550.78;;;10.20;69.35
72548;BME280;60570;50.848;6.776;2023-01-09T02:17:18;98554.88;;;10.30;69.22
72548;BME280;60570;50.848;6.776;2023-01-09T02:18:30;98555.97;;;10.22;69.44
72548;BME280;60570;50.848;6.776;2023-01-09T02:20:55;98558.38;;;10.23;69.30
72548;BME280;60570;50.848;6.776;2023-01-09T02:22:21;98553.13;;;10.15;69.54
72548;BME280;60570;50.848;6.776;2023-01-09T02:34:31;98556.28;;;10.13;69.57
72548;BME280;60570;50.848;6.776;2023-01-09T02:39:41;98563.81;;;10.13;69.45
72548;BME280;60570;50.848;6.776;2023-01-09T02:40:26;98571.75;;;10.14;69.25
72548;BME280;60570;50.848;6.776;2023-01-09T02:41:35;98576.94;;;10.16;69.23
72548;BME280;60570;50.848;6.776;2023-01-09T02:42:38;98571.75;;;10.14;69.22
72548;BME280;60570;50.848;6.776;2023-01-09T02:43:41;98565.47;;;10.21;68.83
72548;BME280;60570;50.848;6.776;2023-01-09T02:44:41;98565.03;;;10.15;69.44
72548;BME280;60570;50.848;6.776;2023-01-09T02:45:43;98571.06;;;10.24;69.10
72548;BME280;60570;50.848;6.776;2023-01-09T02:46:43;98565.38;;;10.10;69.21
72548;BME280;60570;50.848;6.776;2023-01-09T02:47:45;98567.03;;;10.18;69.37
72548;BME280;60570;50.848;6.776;2023-01-09T02:48:48;98575.72;;;10.17;69.50
72548;BME280;60570;50.848;6.776;2023-01-09T02:49:50;98573.47;;;10.26;68.86
72548;BME280;60570;50.848;6.776;2023-01-09T02:54:34;98571.00;;;10.17;69.25
72548;BME280;60570;50.848;6.776;2023-01-09T03:01:40;98576.97;;;10.19;69.56
72548;BME280;60570;50.848;6.776;2023-01-09T03:02:54;98563.94;;;10.27;68.83
72548;BME280;60570;50.848;6.776;2023-01-09T03:04:09;98562.81;;;10.31;68.51
72548;BME280;60570;50.848;6.776;2023-01-09T03:05:28;98564.78;;;10.31;68.42
72548;BME280;60570;50.848;6.776;2023-01-09T03:06:39;98561.25;;;10.34;68.49
72548;BME280;60570;50.848;6.776;2023-01-09T03:07:58;98573.38;;;10.19;68.93
72548;BME280;60570;50.848;6.776;2023-01-09T03:09:06;98571.00;;;10.17;69.09
72548;BME280;60570;50.848;6.776;2023-01-09T03:11:11;98567.91;;;10.26;68.48
72548;BME280;60570;50.848;6.776;2023-01-09T03:12:20;98577.41;;;10.25;68.83
72548;BME280;60570;50.848;6.776;2023-01-09T03:13:23;98573.75;;;10.17;69.13
72548;BME280;60570;50.848;6.776;2023-01-09T03:14:25;98571.44;;;10.23;68.98
72548;BME280;60570;50.848;6.776;2023-01-09T03:15:28;98564.66;;;10.20;69.00
72548;BME280;60570;50.848;6.776;2023-01-09T03:16:34;98570.19;;;10.17;69.04
72548;BME280;60570;50.848;6.776;2023-01-09T03:17:37;98576.53;;;10.17;68.86
72548;BME280;60570;50.848;6.776;2023-01-09T03:18:40;98583.63;;;10.15;68.95
72548;BME280;60570;50.848;6.776;2023-01-09T03:19:42;98580.91;;;10.18;68.92
72548;BME280;60570;50.848;6.776;2023-01-09T03:20:45;98583.75;;;10.25;68.94
72548;BME280;60570;50.848;6.776;2023-01-09T03:21:46;98588.41;;;10.14;69.15
72548;BME280;60570;50.848;6.776;2023-01-09T03:22:56;98585.69;;;10.21;68.91
72548;BME280;60570;50.848;6.776;2023-01-09T03:23:59;98580.97;;;10.22;68.68
72548;BME280;60570;50.848;6.776;2023-01-09T03:25:00;98584.50;;;10.22;68.73
72548;BME280;60570;50.848;6.776;2023-01-09T03:26:00;98583.72;;;10.22;68.69
72548;BME280;60570;50.848;6.776;2023-01-09T03:27:00;98584.56;;;10.26;68.64
72548;BME280;60570;50.848;6.776;2023-01-09T03:28:05;98591.28;;;10.25;68.68
72548;BME280;60570;50.848;6.776;2023-01-09T03:29:06;98586.88;;;10.20;68.67
72548;BME280;60570;50.848;6.776;2023-01-09T03:30:07;98594.75;;;10.15;69.17
72548;BME280;60570;50.848;6.776;2023-01-09T03:31:08;98592.84;;;10.22;68.54
72548;BME280;60570;50.848;6.776;2023-01-09T03:32:09;98595.25;;;10.24;68.33
72548;BME280;60570;50.848;6.776;2023-01-09T03:33:09;98601.13;;;10.19;68.66
72548;BME280;60570;50.848;6.776;2023-01-09T03:34:10;98597.97;;;10.20;68.69
72548;BME280;60570;50.848;6.776;2023-01-09T03:35:10;98598.81;;;10.24;68.40
72548;BME280;60570;50.848;6.776;2023-01-09T03:36:12;98601.94;;;10.19;68.34
72548;BME280;60570;50.848;6.776;2023-01-09T03:37:13;98594.84;;;10.22;68.90
72548;BME280;60570;50.848;6.776;2023-01-09T03:38:13;98597.53;;;10.18;68.36
72548;BME280;60570;50.848;6.776;2023-01-09T03:39:14;98599.16;;;10.19;68.72
72548;BME280;60570;50.848;6.776;2023-01-09T03:40:14;98597.91;;;10.13;68.43
72548;BME280;60570;50.848;6.776;2023-01-09T03:41:15;98605.84;;;10.15;68.54
72548;BME280;60570;50.848;6.776;2023-01-09T03:42:15;98609.38;;;10.12;68.62
72548;BME280;60570;50.848;6.776;2023-01-09T03:43:16;98600.19;;;10.08;68.82
72548;BME280;60570;50.848;6.776;2023-01-09T03:44:16;98602.53;;;10.06;69.15
72548;BME280;60570;50.848;6.776;2023-01-09T03:45:16;98602.56;;;10.09;69.08
72548;BME280;60570;50.848;6.776;2023-01-09T03:46:17;98611.06;;;10.20;68.78
72548;BME280;60570;50.848;6.776;2023-01-09T03:47:17;98611.00;;;10.16;68.64
72548;BME280;60570;50.848;6.776;2023-01-09T03:48:18;98599.91;;;10.16;68.28
72548;BME280;60570;50.848;6.776;2023-01-09T03:49:18;98615.03;;;10.22;68.08
72548;BME280;60570;50.848;6.776;2023-01-09T03:50:19;98609.91;;;10.24;68.24
72548;BME280;60570;50.848;6.776;2023-01-09T03:51:19;98619.38;;;10.20;68.23
72548;BME280;60570;50.848;6.776;2023-01-09T03:52:19;98613.47;;;10.25;67.90
72548;BME280;60570;50.848;6.776;2023-01-09T03:53:22;98616.59;;;10.20;68.31
72548;BME280;60570;50.848;6.776;2023-01-09T03:54:23;98619.75;;;10.18;68.30
72548;BME280;60570;50.848;6.776;2023-01-09T03:55:23;98618.09;;;10.10;68.70
72548;BME280;60570;50.848;6.776;2023-01-09T03:56:24;98619.75;;;10.18;68.49
72548;BME280;60570;50.848;6.776;2023-01-09T03:57:24;98617.34;;;10.17;68.52
72548;BME280;60570;50.848;6.776;2023-01-09T03:58:25;98614.50;;;10.10;68.53
72548;BME280;60570;50.848;6.776;2023-01-09T03:59:26;98611.94;;;9.98;68.82
72548;BME280;60570;50.848;6.776;2023-01-09T04:00:26;98623.13;;;10.05;68.58
72548;BME280;60570;50.848;6.776;2023-01-09T04:01:27;98620.28;;;9.98;68.91
72548;BME280;60570;50.848;6.776;2023-01-09T04:02:27;98620.06;;;10.10;68.13
72548;BME280;60570;50.848;6.776;2023-01-09T04:03:28;98623.25;;;10.12;68.36
72548;BME280;60570;50.848;6.776;2023-01-09T04:04:28;98617.63;;;10.08;68.44
72548;BME280;60570;50.848;6.776;2023-01-09T04:05:28;98621.19;;;10.09;68.50
72548;BME280;60570;50.848;6.776;2023-01-09T04:06:29;98622.88;;;10.13;68.20
72548;BME280;60570;50.848;6.776;2023-01-09T04:07:29;98620.94;;;10.17;68.15
72548;BME280;60570;50.848;6.776;2023-01-09T04:08:30;98616.50;;;10.13;68.25
72548;BME280;60570;50.848;6.776;2023-01-09T04:09:30;98611.81;;;10.17;68.10
72548;BME280;60570;50.848;6.776;2023-01-09T04:10:31;98615.81;;;10.19;68.10
72548;BME280;60570;50.848;6.776;2023-01-09T04:11:31;98610.22;;;10.16;67.92
72548;BME280;60570;50.848;6.776;2023-01-09T04:12:32;98616.19;;;10.18;67.83
72548;BME280;60570;50.848;6.776;2023-01-09T04:13:32;98615.72;;;10.12;67.92
72548;BME280;60570;50.848;6.776;2023-01-09T04:14:32;98610.41;;;10.00;68.30
72548;BME280;60570;50.848;6.776;2023-01-09T04:15:33;98618.88;;;10.11;68.20
72548;BME280;60570;50.848;6.776;2023-01-09T04:16:33;98610.63;;;10.18;68.03
72548;BME280;60570;50.848;6.776;2023-01-09T04:17:34;98623.72;;;10.17;68.16
72548;BME280;60570;50.848;6.776;2023-01-09T04:18:34;98618.88;;;10.11;67.71
72548;BME280;60570;50.848;6.776;2023-01-09T04:19:35;98625.59;;;10.10;68.08
72548;BME280;60570;50.848;6.776;2023-01-09T04:20:35;98626.84;;;10.12;68.04
72548;BME280;60570;50.848;6.776;2023-01-09T04:21:35;98630.41;;;10.16;67.99
72548;BME280;60570;50.848;6.776;2023-01-09T04:22:36;98629.19;;;10.10;68.07
72548;BME280;60570;50.848;6.776;2023-01-09T04:23:36;98635.78;;;10.02;68.07
72548;BME280;60570;50.848;6.776;2023-01-09T04:24:37;98631.97;;;10.10;68.17
72548;BME280;60570;50.848;6.776;2023-01-09T04:25:37;98635.03;;;10.05;67.83
72548;BME280;60570;50.848;6.776;2023-01-09T04:26:38;98638.72;;;10.13;68.13
72548;BME280;60570;50.848;6.776;2023-01-09T04:27:38;98637.13;;;10.12;67.99
72548;BME280;60570;50.848;6.776;2023-01-09T04:28:38;98638.34;;;10.14;67.75
72548;BME280;60570;50.848;6.776;2023-01-09T04:29:39;98648.94;;;10.09;68.01
72548;BME280;60570;50.848;6.776;2023-01-09T04:30:39;98643.50;;;10.16;67.81
72548;BME280;60570;50.848;6.776;2023-01-09T04:31:40;98652.56;;;10.13;67.42
72548;BME280;60570;50.848;6.776;2023-01-09T04:32:40;98642.28;;;10.13;67.57
72548;BME280;60570;50.848;6.776;2023-01-09T04:33:41;98647.03;;;10.13;67.53
72548;BME280;60570;50.848;6.776;2023-01-09T04:34:41;98643.47;;;10.12;67.41
72548;BME280;60570;50.848;6.776;2023-01-09T04:35:41;98640.94;;;10.04;67.75
72548;BME280;60570;50.848;6.776;2023-01-09T04:36:42;98650.84;;;10.05;67.81
72548;BME280;60570;50.848;6.776;2023-01-09T04:37:42;98648.59;;;10.10;67.92
72548;BME280;60570;50.848;6.776;2023-01-09T04:38:43;98654.41;;;10.02;67.99
72548;BME280;60570;50.848;6.776;2023-01-09T04:39:46;98661.19;;;10.04;68.03
72548;BME280;60570;50.848;6.776;2023-01-09T04:40:47;98657.16;;;10.02;67.50
72548;BME280;60570;50.848;6.776;2023-01-09T04:41:48;98656.75;;;10.00;68.30
72548;BME280;60570;50.848;6.776;2023-01-09T04:42:48;98664.66;;;9.98;68.20
72548;BME280;60570;50.848;6.776;2023-01-09T04:43:49;98660.75;;;10.02;68.07
72548;BME280;60570;50.848;6.776;2023-01-09T04:44:49;98661.59;;;10.06;67.76
72548;BME280;60570;50.848;6.776;2023-01-09T04:45:53;98663.91;;;10.01;67.63
72548;BME280;60570;50.848;6.776;2023-01-09T04:46:55;98664.38;;;10.06;67.82
72548;BME280;60570;50.848;6.776;2023-01-09T04:47:56;98668.66;;;10.00;67.43
72548;BME280;60570;50.848;6.776;2023-01-09T04:48:56;98664.22;;;9.95;67.63
72548;BME280;60570;50.848;6.776;2023-01-09T04:49:57;98667.38;;;9.94;67.89
72548;BME280;60570;50.848;6.776;2023-01-09T04:50:58;98674.34;;;9.81;68.02
72548;BME280;60570;50.848;6.776;2023-01-09T04:51:58;98665.69;;;9.86;68.32
72548;BME280;60570;50.848;6.776;2023-01-09T04:52:58;98671.22;;;9.86;68.24
72548;BME280;60570;50.848;6.776;2023-01-09T04:53:59;98673.56;;;9.84;68.00
72548;BME280;60570;50.848;6.776;2023-01-09T04:54:59;98671.06;;;9.75;68.73
72548;BME280;60570;50.848;6.776;2023-01-09T04:56:00;98667.88;;;9.73;68.50
72548;BME280;60570;50.848;6.776;2023-01-09T04:57:01;98667.13;;;9.76;68.72
72548;BME280;60570;50.848;6.776;2023-01-09T04:58:01;98670.41;;;9.85;68.13
72548;BME280;60570;50.848;6.776;2023-01-09T04:59:03;98662.63;;;9.94;67.65
72548;BME280;60570;50.848;6.776;2023-01-09T05:00:04;98672.34;;;9.81;68.15
72548;BME280;60570;50.848;6.776;2023-01-09T05:01:08;98668.50;;;9.89;68.05
72548;BME280;60570;50.848;6.776;2023-01-09T05:02:09;98667.69;;;9.89;67.86
72548;BME280;60570;50.848;6.776;2023-01-09T05:03:09;98668.47;;;9.86;68.04
72548;BME280;60570;50.848;6.776;2023-01-09T05:04:10;98669.69;;;9.88;67.93
72548;BME280;60570;50.848;6.776;2023-01-09T05:05:11;98671.06;;;9.75;68.46
72548;BME280;60570;50.848;6.776;2023-01-09T05:06:11;98673.72;;;9.65;68.55
72548;BME280;60570;50.848;6.776;2023-01-09T05:07:12;98674.28;;;9.77;68.26
72548;BME280;60570;50.848;6.776;2023-01-09T05:08:12;98672.41;;;9.85;68.13
72548;BME280;60570;50.848;6.776;2023-01-09T05:09:13;98668.50;;;9.89;68.01
72548;BME280;60570;50.848;6.776;2023-01-09T05:10:13;98669.16;;;9.79;68.04
72548;BME280;60570;50.848;6.776;2023-01-09T05:11:14;98661.16;;;9.74;68.38
72548;BME280;60570;50.848;6.776;2023-01-09T05:12:14;98662.06;;;9.82;68.12
72548;BME280;60570;50.848;6.776;2023-01-09T05:13:14;98669.56;;;9.81;68.33
72548;BME280;60570;50.848;6.776;2023-01-09T05:14:15;98670.66;;;9.73;68.42
72548;BME280;60570;50.848;6.776;2023-01-09T05:15:15;98678.19;;;9.73;68.54
72548;BME280;60570;50.848;6.776;2023-01-09T05:16:16;98677.28;;;9.65;68.31
72548;BME280;60570;50.848;6.776;2023-01-09T05:17:16;98667.09;;;9.73;68.68
72548;BME280;60570;50.848;6.776;2023-01-09T05:18:17;98673.84;;;9.75;68.18
72548;BME280;60570;50.848;6.776;2023-01-09T05:19:17;98671.75;;;9.65;68.50
72548;BME280;60570;50.848;6.776;2023-01-09T05:20:18;98672.94;;;9.68;68.19
72548;BME280;60570;50.848;6.776;2023-01-09T05:21:18;98668.47;;;9.60;68.63
72548;BME280;60570;50.848;6.776;2023-01-09T05:22:19;98679.56;;;9.60;68.53
72548;BME280;60570;50.848;6.776;2023-01-09T05:23:19;98672.59;;;9.69;68.37
72548;BME280;60570;50.848;6.776;2023-01-09T05:24:20;98671.38;;;9.67;68.27
72548;BME280;60570;50.848;6.776;2023-01-09T05:25:20;98670.97;;;9.68;68.35
72548;BME280;60570;50.848;6.776;2023-01-09T05:26:22;98671.03;;;9.72;68.00
72548;BME280;60570;50.848;6.776;2023-01-09T05:27:23;98674.56;;;9.69;67.99
72548;BME280;60570;50.848;6.776;2023-01-09T05:28:23;98666.03;;;9.81;67.84
72548;BME280;60570;50.848;6.776;2023-01-09T05:29:24;98680.53;;;9.71;68.04
72548;BME280;60570;50.848;6.776;2023-01-09T05:30:24;98678.03;;;9.62;68.11
72548;BME280;60570;50.848;6.776;2023-01-09T05:31:25;98671.78;;;9.69;68.52
72548;BME280;60570;50.848;6.776;2023-01-09T05:32:26;98676.56;;;9.72;68.23
72548;BME280;60570;50.848;6.776;2023-01-09T05:33:27;98681.19;;;9.61;68.09
72548;BME280;60570;50.848;6.776;2023-01-09T05:34:27;98681.66;;;9.66;68.00
72548;BME280;60570;50.848;6.776;2023-01-09T05:35:28;98679.63;;;9.63;68.23
72548;BME280;60570;50.848;6.776;2023-01-09T05:36:28;98677.63;;;9.64;67.86
72548;BME280;60570;50.848;6.776;2023-01-09T05:37:29;98683.56;;;9.62;68.10
72548;BME280;60570;50.848;6.776;2023-01-09T05:38:29;98682.72;;;9.58;68.22
72548;BME280;60570;50.848;6.776;2023-01-09T05:39:30;98689.81;;;9.56;68.24
72548;BME280;60570;50.848;6.776;2023-01-09T05:40:30;98687.94;;;9.63;68.11
72548;BME280;60570;50.848;6.776;2023-01-09T05:41:31;98688.03;;;9.70;67.88
72548;BME280;60570;50.848;6.776;2023-01-09T05:42:32;98691.94;;;9.66;67.64
72548;BME280;60570;50.848;6.776;2023-01-09T05:43:32;98683.56;;;9.62;68.35
72548;BME280;60570;50.848;6.776;2023-01-09T05:44:33;98690.25;;;9.58;68.32
72548;BME280;60570;50.848;6.776;2023-01-09T05:45:33;98685.88;;;9.57;67.85
72548;BME280;60570;50.848;6.776;2023-01-09T05:46:34;98687.72;;;9.49;68.34
72548;BME280;60570;50.848;6.776;2023-01-09T05:47:35;98682.19;;;9.49;67.96
72548;BME280;60570;50.848;6.776;2023-01-09T05:48:35;98687.69;;;9.46;68.35
72548;BME280;60570;50.848;6.776;2023-01-09T05:49:37;98686.13;;;9.48;68.13
72548;BME280;60570;50.848;6.776;2023-01-09T05:50:37;98679.00;;;9.47;68.55
72548;BME280;60570;50.848;6.776;2023-01-09T05:51:37;98687.06;;;9.56;68.11
72548;BME280;60570;50.848;6.776;2023-01-09T05:52:38;98685.81;;;9.53;67.99
72548;BME280;60570;50.848;6.776;2023-01-09T05:53:39;98685.53;;;9.62;67.89
72548;BME280;60570;50.848;6.776;2023-01-09T05:54:39;98686.25;;;9.55;68.27
72548;BME280;60570;50.848;6.776;2023-01-09T05:55:40;98683.78;;;9.50;68.17
72548;BME280;60570;50.848;6.776;2023-01-09T05:56:40;98688.63;;;9.57;68.20
72548;BME280;60570;50.848;6.776;2023-01-09T05:57:41;98688.59;;;9.53;68.02
72548;BME280;60570;50.848;6.776;2023-01-09T05:58:42;98685.44;;;9.55;68.00
72548;BME280;60570;50.848;6.776;2023-01-09T05:59:42;98687.41;;;9.54;68.03
72548;BME280;60570;50.848;6.776;2023-01-09T06:00:42;98685.44;;;9.55;67.88
72548;BME280;60570;50.848;6.776;2023-01-09T06:01:43;98690.16;;;9.54;68.13
72548;BME280;60570;50.848;6.776;2023-01-09T06:02:43;98687.31;;;9.47;68.31